createdAt,value
2022-10-19T00:02:00.986Z,16.30
2022-10-19T00:04:29.223Z,16.20
2022-10-19T00:06:56.757Z,16.20
2022-10-19T00:09:24.305Z,16.10
2022-10-19T00:11:52.049Z,16.20
2022-10-19T00:14:23.836Z,16.20
2022-10-19T00:16:52.410Z,16.40
2022-10-19T00:19:22.061Z,16.60
2022-10-19T00:24:17.989Z,16.30
2022-10-19T00:26:45.839Z,16.20
2022-10-19T00:29:14.576Z,16.30
2022-10-19T00:31:42.207Z,16.30
2022-10-19T00:34:10.020Z,16.20
2022-10-19T00:36:39.262Z,16.10
2022-10-19T00:39:08.378Z,16.10
2022-10-19T00:41:36.445Z,16.10
2022-10-19T00:44:06.202Z,16.20
2022-10-19T00:46:35.764Z,16.20
2022-10-19T00:49:23.440Z,16.00
2022-10-19T00:51:52.406Z,16.00
2022-10-19T00:54:20.310Z,16.00
2022-10-19T00:56:49.254Z,16.00
2022-10-19T00:59:17.923Z,16.00
2022-10-19T01:01:45.758Z,15.80
2022-10-19T01:04:13.391Z,15.70
2022-10-19T01:06:41.174Z,15.60
2022-10-19T01:09:09.053Z,15.60
2022-10-19T01:11:36.478Z,15.70
2022-10-19T01:14:03.910Z,15.70
2022-10-19T01:16:31.191Z,15.70
2022-10-19T01:19:05.089Z,15.60
2022-10-19T01:21:40.669Z,15.60
2022-10-19T01:24:14.175Z,15.70
2022-10-19T01:26:41.530Z,15.70
2022-10-19T01:29:18.637Z,15.60
2022-10-19T01:32:01.367Z,15.60
2022-10-19T01:34:50.449Z,15.70
2022-10-19T01:37:36.889Z,15.80
2022-10-19T01:40:08.183Z,15.90
2022-10-19T01:42:46.869Z,15.80
2022-10-19T01:45:19.098Z,15.80
2022-10-19T01:47:58.670Z,15.70
2022-10-19T02:05:56.920Z,15.30
2022-10-19T02:08:26.765Z,15.40
2022-10-19T02:10:54.892Z,15.30
2022-10-19T02:13:23.152Z,15.30
2022-10-19T02:15:52.995Z,15.30
2022-10-19T02:18:24.284Z,15.30
2022-10-19T02:20:51.654Z,15.30
2022-10-19T02:23:21.197Z,15.40
2022-10-19T02:25:48.706Z,15.50
2022-10-19T02:28:16.324Z,15.40
2022-10-19T02:30:43.960Z,15.30
2022-10-19T02:33:12.757Z,15.20
2022-10-19T02:35:40.593Z,15.30
2022-10-19T02:38:10.401Z,15.20
2022-10-19T02:40:39.817Z,15.20
2022-10-19T02:43:10.515Z,15.20
2022-10-19T02:45:41.562Z,15.30
2022-10-19T02:48:14.434Z,15.40
2022-10-19T02:50:45.425Z,15.40
2022-10-19T02:53:12.796Z,15.40
2022-10-19T02:58:08.198Z,15.40
2022-10-19T03:00:35.813Z,15.30
2022-10-19T03:03:03.295Z,15.30
2022-10-19T03:05:30.678Z,15.30
2022-10-19T03:07:58.071Z,15.30
2022-10-19T03:10:25.644Z,15.10
2022-10-19T03:12:53.009Z,14.80
2022-10-19T03:15:20.467Z,15.00
2022-10-19T03:17:47.905Z,15.10
2022-10-19T03:20:15.253Z,15.00
2022-10-19T03:22:42.687Z,15.20
2022-10-19T03:25:10.165Z,15.10
2022-10-19T03:27:37.501Z,15.10
2022-10-19T03:30:05.046Z,15.20
2022-10-19T03:32:32.472Z,15.20
2022-10-19T03:34:59.888Z,15.20
2022-10-19T03:37:27.306Z,15.10
2022-10-19T03:39:54.647Z,15.10
2022-10-19T03:42:22.041Z,15.10
2022-10-19T03:44:49.465Z,15.10
2022-10-19T03:47:16.854Z,15.00
2022-10-19T03:49:44.335Z,14.90
2022-10-19T03:52:11.708Z,14.90
2022-10-19T03:54:39.163Z,15.00
2022-10-19T03:57:06.499Z,15.00
2022-10-19T03:59:33.916Z,15.00
2022-10-19T04:02:01.289Z,14.90
2022-10-19T04:04:28.805Z,14.80
2022-10-19T04:06:56.237Z,14.90
2022-10-19T04:09:24.034Z,14.90
2022-10-19T04:11:51.491Z,14.80
2022-10-19T04:14:31.650Z,14.70
2022-10-19T04:17:01.671Z,14.70
2022-10-19T04:19:29.199Z,14.70
2022-10-19T04:21:56.616Z,14.70
2022-10-19T04:24:24.426Z,14.80
2022-10-19T04:26:53.990Z,14.90
2022-10-19T04:29:24.981Z,14.70
2022-10-19T04:31:55.376Z,14.70
2022-10-19T04:34:22.871Z,14.60
2022-10-19T04:36:50.247Z,14.50
2022-10-19T04:39:17.737Z,14.50
2022-10-19T04:41:45.130Z,14.50
2022-10-19T04:44:12.612Z,14.70
2022-10-19T04:46:40.665Z,14.70
2022-10-19T04:49:08.079Z,14.70
2022-10-19T04:51:35.490Z,14.70
2022-10-19T04:54:03.621Z,14.60
2022-10-19T04:56:32.522Z,14.60
2022-10-19T04:59:00.624Z,14.50
2022-10-19T05:01:30.784Z,14.50
2022-10-19T05:03:59.815Z,14.50
2022-10-19T05:06:27.458Z,14.40
2022-10-19T05:08:54.918Z,14.50
2022-10-19T05:11:22.426Z,14.50
2022-10-19T05:13:49.907Z,14.50
2022-10-19T05:16:19.136Z,14.40
2022-10-19T05:18:50.462Z,14.40
2022-10-19T05:21:18.631Z,14.40
2022-10-19T05:23:46.125Z,14.30
2022-10-19T05:26:15.497Z,14.30
2022-10-19T05:28:43.328Z,14.40
2022-10-19T05:31:10.714Z,14.30
2022-10-19T05:33:38.248Z,14.20
2022-10-19T05:36:11.911Z,14.20
2022-10-19T05:38:39.345Z,14.20
2022-10-19T05:41:06.877Z,14.30
2022-10-19T05:43:34.300Z,14.30
2022-10-19T05:46:06.370Z,14.30
2022-10-19T05:48:35.051Z,14.20
2022-10-19T05:51:03.222Z,14.30
2022-10-19T05:53:30.865Z,14.30
2022-10-19T05:55:58.345Z,14.20
2022-10-19T05:58:25.835Z,14.30
2022-10-19T06:00:54.256Z,14.40
2022-10-19T06:03:22.430Z,14.30
2022-10-19T06:05:50.360Z,14.10
2022-10-19T06:08:18.375Z,14.10
2022-10-19T06:10:46.117Z,14.10
2022-10-19T06:13:14.109Z,14.10
2022-10-19T06:15:41.676Z,14.10
2022-10-19T06:18:10.941Z,14.10
2022-10-19T06:20:39.167Z,14.10
2022-10-19T06:23:07.091Z,14.20
2022-10-19T06:25:35.154Z,14.20
2022-10-19T06:28:03.261Z,14.30
2022-10-19T06:30:30.752Z,14.40
2022-10-19T06:32:59.292Z,14.50
2022-10-19T06:35:26.797Z,14.60
2022-10-19T06:37:56.260Z,14.70
2022-10-19T06:40:24.763Z,14.80
2022-10-19T06:42:52.496Z,14.90
2022-10-19T06:45:19.996Z,14.80
2022-10-19T06:50:20.780Z,14.90
2022-10-19T06:52:48.290Z,15.00
2022-10-19T06:55:17.186Z,15.10
2022-10-19T06:57:45.269Z,15.20
2022-10-19T07:00:13.460Z,15.20
2022-10-19T07:02:40.822Z,15.30
2022-10-19T07:05:08.807Z,15.40
2022-10-19T07:07:36.800Z,15.40
2022-10-19T07:10:04.655Z,15.40
2022-10-19T07:12:32.665Z,15.50
2022-10-19T07:15:00.079Z,15.60
2022-10-19T07:17:27.513Z,15.70
2022-10-19T07:19:55.234Z,15.90
2022-10-19T07:22:27.840Z,16.10
2022-10-19T07:24:55.770Z,16.20
2022-10-19T07:27:23.168Z,16.30
2022-10-19T07:29:50.580Z,16.40
2022-10-19T07:32:17.996Z,16.40
2022-10-19T07:34:45.380Z,16.40
2022-10-19T07:37:12.820Z,16.50
2022-10-19T07:39:40.256Z,16.50
2022-10-19T07:42:07.744Z,16.60
2022-10-19T07:44:35.171Z,16.60
2022-10-19T07:47:04.717Z,16.60
2022-10-19T07:49:32.143Z,16.60
2022-10-19T07:51:59.578Z,16.70
2022-10-19T07:54:27.571Z,16.80
2022-10-19T07:56:55.016Z,17.00
2022-10-19T07:59:22.600Z,17.20
2022-10-19T08:01:50.501Z,17.20
2022-10-19T08:07:05.437Z,17.10
2022-10-19T08:09:52.022Z,17.10
2022-10-19T08:12:20.345Z,17.20
2022-10-19T08:14:48.301Z,17.40
2022-10-19T08:17:17.841Z,17.40
2022-10-19T08:19:46.361Z,17.50
2022-10-19T08:22:13.873Z,17.50
2022-10-19T08:24:41.550Z,17.60
2022-10-19T08:27:09.156Z,17.70
2022-10-19T08:29:36.555Z,17.80
2022-10-19T08:32:04.005Z,17.90
2022-10-19T08:34:33.081Z,18.20
2022-10-19T08:37:06.790Z,18.20
2022-10-19T08:39:42.405Z,18.20
2022-10-19T08:42:33.043Z,18.10
2022-10-19T08:45:07.898Z,18.30
2022-10-19T08:47:53.654Z,18.60
2022-10-19T08:50:25.595Z,18.60
2022-10-19T08:53:12.448Z,18.60
2022-10-19T08:55:49.253Z,18.70
2022-10-19T08:58:24.091Z,18.80
2022-10-19T09:00:56.562Z,18.90
2022-10-19T09:03:43.866Z,18.80
2022-10-19T09:06:31.954Z,18.90
2022-10-19T09:08:59.761Z,18.90
2022-10-19T09:11:29.722Z,19.00
2022-10-19T09:14:06.910Z,19.20
2022-10-19T09:16:35.293Z,19.30
2022-10-19T09:19:03.586Z,19.30
2022-10-19T09:21:51.895Z,19.40
2022-10-19T09:24:38.207Z,19.50
2022-10-19T09:27:06.105Z,19.70
2022-10-19T09:29:45.022Z,19.80
2022-10-19T09:32:14.663Z,19.80
2022-10-19T09:34:45.309Z,19.90
2022-10-19T09:37:21.199Z,19.80
2022-10-19T09:39:54.106Z,19.90
2022-10-19T09:42:30.624Z,20.00
2022-10-19T09:44:59.158Z,20.00
2022-10-19T09:47:29.689Z,20.20
2022-10-19T09:50:17.471Z,20.40
2022-10-19T09:53:04.243Z,20.30
2022-10-19T09:55:35.048Z,20.50
2022-10-19T09:58:04.166Z,20.50
2022-10-19T10:00:40.001Z,20.60
2022-10-19T10:03:07.818Z,20.80
2022-10-19T10:05:37.209Z,20.80
2022-10-19T10:08:10.130Z,20.70
2022-10-19T10:10:38.972Z,20.80
2022-10-19T10:13:06.394Z,21.00
2022-10-19T10:15:43.460Z,21.10
2022-10-19T10:18:13.967Z,21.20
2022-10-19T10:23:26.437Z,21.50
2022-10-19T10:25:58.423Z,21.50
2022-10-19T10:28:26.691Z,21.60
2022-10-19T10:31:02.183Z,21.70
2022-10-19T10:33:44.213Z,21.90
2022-10-19T10:36:13.252Z,21.90
2022-10-19T10:38:42.158Z,22.00
2022-10-19T10:41:12.371Z,22.10
2022-10-19T10:43:49.490Z,22.30
2022-10-19T10:46:19.950Z,22.20
2022-10-19T10:49:07.647Z,22.30
2022-10-19T10:51:38.880Z,22.40
2022-10-19T10:54:16.413Z,22.40
2022-10-19T10:56:44.721Z,22.70
2022-10-19T10:59:22.196Z,22.80
2022-10-19T11:02:10.006Z,22.90
2022-10-19T11:04:39.969Z,22.90
2022-10-19T11:07:23.980Z,23.10
2022-10-19T11:09:53.419Z,23.20
2022-10-19T11:12:31.556Z,23.50
2022-10-19T11:15:19.380Z,23.60
2022-10-19T11:17:53.753Z,23.70
2022-10-19T11:20:22.912Z,24.00
2022-10-19T11:22:58.925Z,24.00
2022-10-19T11:25:52.635Z,24.10
2022-10-19T11:28:28.926Z,24.20
2022-10-19T11:30:59.403Z,24.30
2022-10-19T11:33:29.952Z,24.40
2022-10-19T11:36:05.871Z,24.40
2022-10-19T11:38:42.181Z,24.50
2022-10-19T11:41:18.321Z,24.60
2022-10-19T11:44:05.335Z,24.70
2022-10-19T11:46:37.469Z,24.70
2022-10-19T11:49:11.815Z,24.80
2022-10-19T11:51:42.554Z,25.00
2022-10-19T11:54:25.373Z,25.20
2022-10-19T11:57:11.724Z,25.40
2022-10-19T12:00:00.174Z,25.60
2022-10-19T12:02:54.179Z,25.60
2022-10-19T12:05:29.675Z,25.60
2022-10-19T12:08:04.754Z,25.60
2022-10-19T12:10:37.736Z,25.80
2022-10-19T12:13:07.616Z,25.90
2022-10-19T12:15:39.754Z,26.10
2022-10-19T12:18:12.137Z,26.20
2022-10-19T12:20:43.083Z,26.30
2022-10-19T12:23:29.113Z,26.40
2022-10-19T12:25:57.402Z,26.30
2022-10-19T12:28:30.076Z,26.40
2022-10-19T12:30:59.032Z,26.40
2022-10-19T12:33:29.349Z,26.40
2022-10-19T12:36:16.244Z,26.20
2022-10-19T12:38:46.051Z,26.20
2022-10-19T12:41:22.839Z,26.20
2022-10-19T12:44:00.826Z,26.40
2022-10-19T12:46:31.237Z,26.40
2022-10-19T12:49:17.454Z,26.50
2022-10-19T12:51:45.859Z,26.30
2022-10-19T12:54:13.318Z,26.30
2022-10-19T12:56:48.197Z,26.20
2022-10-19T12:59:41.606Z,26.40
2022-10-19T13:02:21.538Z,26.50
2022-10-19T13:04:53.693Z,26.50
2022-10-19T13:07:21.293Z,26.50
2022-10-19T13:09:49.143Z,26.40
2022-10-19T13:12:21.430Z,26.50
2022-10-19T13:14:52.363Z,26.40
2022-10-19T13:17:35.190Z,26.40
2022-10-19T13:20:14.960Z,26.30
2022-10-19T13:22:50.331Z,26.30
2022-10-19T13:25:23.793Z,26.30
2022-10-19T13:27:52.417Z,26.40
2022-10-19T13:30:44.190Z,26.40
2022-10-19T13:33:29.864Z,26.40
2022-10-19T13:36:00.505Z,26.40
2022-10-19T13:38:38.207Z,26.40
2022-10-19T13:41:05.715Z,26.30
2022-10-19T13:43:34.531Z,26.30
2022-10-19T13:46:01.978Z,26.20
2022-10-19T13:48:48.020Z,26.20
2022-10-19T13:51:18.215Z,26.10
2022-10-19T13:54:04.630Z,26.20
2022-10-19T13:56:43.251Z,26.10
2022-10-19T13:59:13.870Z,25.90
2022-10-19T14:01:53.573Z,26.00
2022-10-19T14:04:25.617Z,26.00
2022-10-19T14:06:59.044Z,25.90
2022-10-19T14:09:36.976Z,25.80
2022-10-19T14:12:12.280Z,25.70
2022-10-19T14:17:21.001Z,25.60
2022-10-19T14:19:50.725Z,25.40
2022-10-19T14:22:26.063Z,25.30
2022-10-19T14:25:00.324Z,25.30
2022-10-19T14:27:27.764Z,25.20
2022-10-19T14:29:55.206Z,25.20
2022-10-19T14:32:24.357Z,25.10
2022-10-19T14:34:52.024Z,24.80
2022-10-19T14:37:21.161Z,24.80
2022-10-19T14:40:08.638Z,24.80
2022-10-19T14:42:45.621Z,24.70
2022-10-19T14:45:15.674Z,24.60
2022-10-19T14:47:56.267Z,24.60
2022-10-19T14:50:26.565Z,24.70
2022-10-19T14:52:57.429Z,24.70
2022-10-19T14:55:26.195Z,24.60
2022-10-19T14:57:54.113Z,24.60
2022-10-19T15:00:22.696Z,24.60
2022-10-19T15:03:04.279Z,24.60
2022-10-19T15:05:33.533Z,24.70
2022-10-19T15:08:11.738Z,24.60
2022-10-19T15:10:44.317Z,24.50
2022-10-19T15:13:28.763Z,24.50
2022-10-19T15:15:56.303Z,24.40
2022-10-19T15:18:47.825Z,24.30
2022-10-19T15:21:13.649Z,24.20
2022-10-19T15:23:42.674Z,24.10
2022-10-19T15:26:17.196Z,24.10
2022-10-19T15:28:45.441Z,24.00
2022-10-19T15:31:19.252Z,23.90
2022-10-19T15:33:51.407Z,23.80
2022-10-19T15:36:20.169Z,23.70
2022-10-19T15:38:48.995Z,23.70
2022-10-19T15:41:26.996Z,23.60
2022-10-19T15:43:58.995Z,23.50
2022-10-19T15:46:45.256Z,23.20
2022-10-19T15:49:15.653Z,23.20
2022-10-19T15:51:44.613Z,23.00
2022-10-19T15:54:12.990Z,22.80
2022-10-19T15:56:40.604Z,22.80
2022-10-19T15:59:12.830Z,22.60
2022-10-19T16:01:40.381Z,22.60
2022-10-19T16:04:07.891Z,22.50
2022-10-19T16:06:36.859Z,22.40
2022-10-19T16:09:04.460Z,22.30
2022-10-19T16:11:32.561Z,22.20
2022-10-19T16:14:00.152Z,22.10
2022-10-19T16:16:31.806Z,22.00
2022-10-19T16:18:59.855Z,22.00
2022-10-19T16:21:29.583Z,21.90
2022-10-19T16:23:57.038Z,21.80
2022-10-19T16:26:26.180Z,21.70
2022-10-19T16:28:54.158Z,21.60
2022-10-19T16:31:21.771Z,21.50
2022-10-19T16:33:49.175Z,21.50
2022-10-19T16:36:20.312Z,21.40
2022-10-19T16:38:48.189Z,21.40
2022-10-19T16:41:15.857Z,21.30
2022-10-19T16:43:43.263Z,21.20
2022-10-19T16:46:11.909Z,21.20
2022-10-19T16:48:39.307Z,21.10
2022-10-19T16:51:06.805Z,21.10
2022-10-19T16:53:34.646Z,21.00
2022-10-19T16:56:06.084Z,21.00
2022-10-19T16:58:33.780Z,21.00
2022-10-19T17:01:06.406Z,20.90
2022-10-19T17:03:33.887Z,20.90
2022-10-19T17:06:11.008Z,20.70
2022-10-19T17:09:14.268Z,20.60
2022-10-19T17:11:27.852Z,20.60
2022-10-19T17:13:56.730Z,20.50
2022-10-19T17:16:24.502Z,20.40
2022-10-19T17:18:54.173Z,20.50
2022-10-19T17:21:22.722Z,20.40
2022-10-19T17:23:57.615Z,20.40
2022-10-19T17:26:29.131Z,20.40
2022-10-19T17:28:56.918Z,20.40
2022-10-19T17:31:24.736Z,20.30
2022-10-19T17:33:52.313Z,20.30
2022-10-19T17:36:27.717Z,20.20
2022-10-19T17:38:56.294Z,20.20
2022-10-19T17:41:23.995Z,20.20
2022-10-19T17:43:54.851Z,20.20
2022-10-19T17:46:30.322Z,20.30
2022-10-19T17:48:58.157Z,20.30
2022-10-19T17:51:27.556Z,20.30
2022-10-19T17:53:56.671Z,20.30
2022-10-19T17:56:24.416Z,20.30
2022-10-19T17:58:52.179Z,20.30
2022-10-19T18:01:20.416Z,20.30
2022-10-19T18:03:48.255Z,20.40
2022-10-19T18:06:15.637Z,20.30
2022-10-19T18:08:48.078Z,20.20
2022-10-19T18:11:17.475Z,20.30
2022-10-19T18:13:45.201Z,20.10
2022-10-19T18:16:17.509Z,20.20
2022-10-19T18:18:46.154Z,20.10
2022-10-19T18:21:14.445Z,20.20
2022-10-19T18:23:42.285Z,20.10
2022-10-19T18:26:14.168Z,19.90
2022-10-19T18:28:42.003Z,19.90
2022-10-19T18:31:10.424Z,19.70
2022-10-19T18:33:38.618Z,19.70
2022-10-19T18:36:06.818Z,19.70
2022-10-19T18:38:34.348Z,19.60
2022-10-19T18:43:40.156Z,19.60
2022-10-19T18:46:08.672Z,19.50
2022-10-19T18:48:37.708Z,19.50
2022-10-19T18:51:06.882Z,19.50
2022-10-19T18:53:34.857Z,19.60
2022-10-19T18:56:06.577Z,19.60
2022-10-19T18:58:34.852Z,19.40
2022-10-19T19:01:06.988Z,19.40
2022-10-19T19:03:34.488Z,19.30
2022-10-19T19:06:02.988Z,19.20
2022-10-19T19:08:30.489Z,19.10
2022-10-19T19:11:08.551Z,19.10
2022-10-19T19:13:35.992Z,19.00
2022-10-19T19:16:03.418Z,18.90
2022-10-19T19:18:33.841Z,18.80
2022-10-19T19:21:02.028Z,18.80
2022-10-19T19:23:29.599Z,18.80
2022-10-19T19:25:57.055Z,18.90
2022-10-19T19:28:24.570Z,18.80
2022-10-19T19:30:51.993Z,19.00
2022-10-19T19:33:19.553Z,19.10
2022-10-19T19:35:48.293Z,19.10
2022-10-19T19:38:16.696Z,18.90
2022-10-19T19:40:45.281Z,18.80
2022-10-19T19:43:13.971Z,18.70
2022-10-19T19:45:42.061Z,18.60
2022-10-19T19:48:10.210Z,18.70
2022-10-19T19:50:38.013Z,18.70
2022-10-19T19:53:05.501Z,18.70
2022-10-19T19:55:38.139Z,18.70
2022-10-19T19:58:06.725Z,18.70
2022-10-19T20:00:34.111Z,18.80
2022-10-19T20:03:01.469Z,18.80
2022-10-19T20:05:28.917Z,18.80
2022-10-19T20:07:56.383Z,18.90
2022-10-19T20:10:23.916Z,18.80
2022-10-19T20:12:51.451Z,18.70
2022-10-19T20:15:18.976Z,18.60
2022-10-19T20:17:46.594Z,18.50
2022-10-19T20:20:14.949Z,18.60
2022-10-19T20:22:45.756Z,18.50
2022-10-19T20:25:13.251Z,18.40
2022-10-19T20:27:40.727Z,18.30
2022-10-19T20:30:08.784Z,18.20
2022-10-19T20:32:37.553Z,18.10
2022-10-19T20:35:05.477Z,18.10
2022-10-19T20:37:33.042Z,18.20
2022-10-19T20:40:01.565Z,18.20
2022-10-19T20:42:30.821Z,18.20
2022-10-19T20:44:58.271Z,18.30
2022-10-19T20:47:25.824Z,18.30
2022-10-19T20:49:53.204Z,18.20
2022-10-19T20:52:20.653Z,18.30
2022-10-19T20:54:48.505Z,18.30
2022-10-19T20:57:16.756Z,18.40
2022-10-19T20:59:45.804Z,18.40
2022-10-19T21:02:13.302Z,18.40
2022-10-19T21:04:40.919Z,18.50
2022-10-19T21:07:08.399Z,18.50
2022-10-19T21:09:36.013Z,18.50
2022-10-19T21:12:03.735Z,18.50
2022-10-19T21:14:31.729Z,18.50
2022-10-19T21:16:59.672Z,18.40
2022-10-19T21:19:27.974Z,18.50
2022-10-19T21:21:57.112Z,18.50
2022-10-19T21:24:25.888Z,18.50
2022-10-19T21:26:53.432Z,18.50
2022-10-19T21:29:20.906Z,18.30
2022-10-19T21:31:49.491Z,18.40
2022-10-19T21:34:19.024Z,18.40
2022-10-19T21:36:46.621Z,18.40
2022-10-19T21:39:14.037Z,18.30
2022-10-19T21:41:41.691Z,18.20
2022-10-19T21:44:09.158Z,18.10
2022-10-19T21:46:36.919Z,18.00
2022-10-19T21:49:04.807Z,17.90
2022-10-19T21:51:37.453Z,17.80
2022-10-19T21:54:05.959Z,17.80
2022-10-19T21:56:33.938Z,17.90
2022-10-19T21:59:01.350Z,17.80
2022-10-19T22:01:29.654Z,17.80
2022-10-19T22:03:57.790Z,17.80
2022-10-19T22:06:27.142Z,17.80
2022-10-19T22:08:55.035Z,18.00
2022-10-19T22:11:22.655Z,17.80
2022-10-19T22:13:53.237Z,17.60
2022-10-19T22:16:20.919Z,17.50
2022-10-19T22:18:48.901Z,17.50
2022-10-19T22:21:18.639Z,17.30
2022-10-19T22:23:50.926Z,17.10
2022-10-19T22:26:20.026Z,17.20
2022-10-19T22:28:47.789Z,17.20
2022-10-19T22:31:15.186Z,17.20
2022-10-19T22:33:42.663Z,17.20
2022-10-19T22:36:11.140Z,17.10
2022-10-19T22:38:38.991Z,17.20
2022-10-19T22:41:44.240Z,17.10
2022-10-19T22:45:07.600Z,17.20
2022-10-19T22:48:32.346Z,17.30
2022-10-19T22:51:56.077Z,17.20
2022-10-19T22:54:41.810Z,17.20
2022-10-19T22:57:09.744Z,17.20
2022-10-19T22:59:37.422Z,17.20
2022-10-19T23:02:04.881Z,17.20
2022-10-19T23:04:32.400Z,17.20
2022-10-19T23:06:59.806Z,17.10
2022-10-19T23:09:27.311Z,17.10
2022-10-19T23:11:54.710Z,17.00
2022-10-19T23:14:22.157Z,17.10
2022-10-19T23:16:49.530Z,17.20
2022-10-19T23:19:17.000Z,17.10
2022-10-19T23:21:44.402Z,17.10
2022-10-19T23:24:11.827Z,17.10
2022-10-19T23:26:39.216Z,17.10
2022-10-19T23:29:06.669Z,17.10
2022-10-19T23:31:34.116Z,17.00
2022-10-19T23:34:01.521Z,17.00
2022-10-19T23:36:29.165Z,16.90
2022-10-19T23:38:57.317Z,17.00
2022-10-19T23:41:25.242Z,16.90
2022-10-19T23:43:52.689Z,16.90
2022-10-19T23:46:20.122Z,17.00
2022-10-19T23:48:47.772Z,16.90
2022-10-19T23:51:16.355Z,16.90
2022-10-19T23:53:44.646Z,16.70
2022-10-19T23:56:16.447Z,16.80
2022-10-19T23:58:44.250Z,16.60
